Muddy Creek, North Carolina
Current Conditions -  °F | °C
As of 1:54 PM on Monday 20 Oct 2014 (Local Time) from KINT Reporting Station
Clear Clear  
Wind Chill: 67°   Ceiling: Unl
Heat Index: 67°   Visibility: 10mi
Dew Point: 43°   Wind: 10mph
Humidity: 42%   Direction: 200°SSW
Pressure: 30.03"   Gusts: 16mph
Location:  36.0595°N, 80.3192°W
Report Text: KINT 201754Z 20009G14KT 10SM CLR 19/06 A3003 RMK AO2 SLP166 T01940061 10194 20056 58033
Loading
Personal Weather Stations






























Interactive Weather Map
Tropical Storm Tracking
New forecast layout! Learn more

10-Day Weather Forecast

Advertisements
Track Severe Weather on mobile